Aérodrome :
LOGIN :

S'inscrire | Disclaimer

   EN    FR    IT 

 










Légende :    VFR   VFR Marginal   IFR   IFR Intensif   IFR Très Intensif
Visi : 
Plafond : 
>= 8 km
>= 3000ft
5 à 8 km
1000 à 3000 ft
1500m à 5 km
500 à 1000 ft
800 à 1500m
200 à 500 ft
< 800m
< 200 ft
Symboles :   Orages  Brouillard  Fortes neiges  Fortes précipitations  Vent > 20 kt
SIGMETs :   Divers  Orages  Givrage  Turbulence  Onde Orograph.  Cendres Volcan.







- Altitude de l'aérodrome : 574 ft
- Code IATA : NDR


GMMW - Nador El Aroui

DERNIER METAR :
  • 142000Z 16004KT 9999 SCT036 11/04 Q1026 NOSIG

METARs EXPIRÉS :
  • 141900Z 28008KT 9999 SCT036 12/03 Q1025 NOSIG
  • 141800Z 26009KT 230V290 CAVOK 13/03 Q1024 NOSIG

TAF TAF GMMW
Valide du 14 à 18h jusqu'au 16 à 00h UTC


141700Z 1418/1524 30012KT CAVOK
Pas de NOTAMs connus pour ce terrain.
2 SIGMETs publiés pour la FIR Casablanca (GMMM) :
 
Onde orographique forte
GMMM SIGMET W6 VALID 141942/142342 GMMC
GMMM CASABLANCA FIR SEV MTW FCST E OF LINE N3429 W00443 - N3137 W004 11 FL050/140 MOV E WKN=
Onde orographique forte
GMMM SIGMET W5 VALID 141842/141942 GMMC
GMMM CASABLANCA FIR SEV MTW FCST E OF LINE N3443 W00322 - N32413 W00 455 - N3059 W00809 FL050/140 STNR WKN=



MET'MAP, la Météo Aéronautique d'un coup d'oeil ! - Copyright ORBIFLY Décembre 2007 - Disclaimer

ORBIFLY MET'MAP TEAM :

Programmation & Développement : Alexandra Zaïnal
Conception & Développement : Baudouin d'Aumeries
Co-Programmation & Développement : Marc-Olivier Méhu
Soutien technique & logistique : Manuel Goepfert

Contact : metmap@orbifly.com




SOURCES & CREDITS :

   NOAA